sensor_id;sensor_type;location;lat;lon;timestamp;P1;durP1;ratioP1;P2;durP2;ratioP2
72493;SDS011;60520;49.182;-0.348;2023-02-15T00:00:18;4.93;;;4.25;;
72493;SDS011;60520;49.182;-0.348;2023-02-15T00:02:45;6.70;;;4.88;;
72493;SDS011;60520;49.182;-0.348;2023-02-15T00:05:13;6.53;;;4.57;;
72493;SDS011;60520;49.182;-0.348;2023-02-15T00:07:41;6.60;;;4.60;;
72493;SDS011;60520;49.182;-0.348;2023-02-15T00:10:08;6.70;;;4.47;;
72493;SDS011;60520;49.182;-0.348;2023-02-15T00:12:37;6.35;;;4.85;;
72493;SDS011;60520;49.182;-0.348;2023-02-15T00:15:04;6.30;;;5.00;;
72493;SDS011;60520;49.182;-0.348;2023-02-15T00:17:31;5.28;;;4.43;;
72493;SDS011;60520;49.182;-0.348;2023-02-15T00:19:58;6.22;;;4.80;;
72493;SDS011;60520;49.182;-0.348;2023-02-15T00:22:26;6.22;;;4.50;;
72493;SDS011;60520;49.182;-0.348;2023-02-15T00:24:54;6.68;;;4.93;;
72493;SDS011;60520;49.182;-0.348;2023-02-15T00:27:21;7.25;;;5.15;;
72493;SDS011;60520;49.182;-0.348;2023-02-15T00:29:48;6.18;;;4.93;;
72493;SDS011;60520;49.182;-0.348;2023-02-15T00:32:15;6.95;;;5.03;;
72493;SDS011;60520;49.182;-0.348;2023-02-15T00:34:42;7.07;;;4.85;;
72493;SDS011;60520;49.182;-0.348;2023-02-15T00:37:09;6.38;;;4.90;;
72493;SDS011;60520;49.182;-0.348;2023-02-15T00:39:38;6.65;;;5.13;;
72493;SDS011;60520;49.182;-0.348;2023-02-15T00:42:05;6.75;;;4.68;;
72493;SDS011;60520;49.182;-0.348;2023-02-15T00:44:32;6.03;;;4.68;;
72493;SDS011;60520;49.182;-0.348;2023-02-15T00:46:59;6.80;;;5.13;;
72493;SDS011;60520;49.182;-0.348;2023-02-15T00:49:26;6.50;;;4.88;;
72493;SDS011;60520;49.182;-0.348;2023-02-15T00:51:53;6.00;;;4.47;;
72493;SDS011;60520;49.182;-0.348;2023-02-15T00:54:20;6.03;;;4.78;;
72493;SDS011;60520;49.182;-0.348;2023-02-15T00:56:48;7.38;;;5.30;;
72493;SDS011;60520;49.182;-0.348;2023-02-15T00:59:16;6.50;;;5.00;;
72493;SDS011;60520;49.182;-0.348;2023-02-15T01:01:43;7.00;;;5.43;;
72493;SDS011;60520;49.182;-0.348;2023-02-15T01:04:10;6.18;;;5.07;;
72493;SDS011;60520;49.182;-0.348;2023-02-15T01:06:37;6.65;;;4.93;;
72493;SDS011;60520;49.182;-0.348;2023-02-15T01:09:04;5.88;;;5.00;;
72493;SDS011;60520;49.182;-0.348;2023-02-15T01:11:31;6.38;;;5.18;;
72493;SDS011;60520;49.182;-0.348;2023-02-15T01:13:59;6.80;;;5.15;;
72493;SDS011;60520;49.182;-0.348;2023-02-15T01:16:28;6.22;;;4.85;;
72493;SDS011;60520;49.182;-0.348;2023-02-15T01:18:55;7.35;;;5.15;;
72493;SDS011;60520;49.182;-0.348;2023-02-15T01:21:23;6.13;;;4.95;;
72493;SDS011;60520;49.182;-0.348;2023-02-15T01:23:51;5.85;;;4.40;;
72493;SDS011;60520;49.182;-0.348;2023-02-15T01:26:18;7.15;;;5.45;;
72493;SDS011;60520;49.182;-0.348;2023-02-15T01:28:45;6.53;;;5.10;;
72493;SDS011;60520;49.182;-0.348;2023-02-15T01:31:14;6.60;;;5.18;;
72493;SDS011;60520;49.182;-0.348;2023-02-15T01:33:41;5.95;;;4.75;;
72493;SDS011;60520;49.182;-0.348;2023-02-15T01:36:09;7.82;;;4.72;;
72493;SDS011;60520;49.182;-0.348;2023-02-15T01:38:36;6.85;;;5.25;;
72493;SDS011;60520;49.182;-0.348;2023-02-15T01:41:04;6.47;;;5.18;;
72493;SDS011;60520;49.182;-0.348;2023-02-15T01:43:49;6.25;;;5.07;;
72493;SDS011;60520;49.182;-0.348;2023-02-15T01:46:19;5.90;;;4.95;;
72493;SDS011;60520;49.182;-0.348;2023-02-15T01:48:47;6.57;;;4.80;;
72493;SDS011;60520;49.182;-0.348;2023-02-15T01:51:16;6.93;;;5.18;;
72493;SDS011;60520;49.182;-0.348;2023-02-15T01:53:46;7.03;;;5.00;;
72493;SDS011;60520;49.182;-0.348;2023-02-15T01:56:15;5.90;;;5.00;;
72493;SDS011;60520;49.182;-0.348;2023-02-15T01:58:44;7.50;;;5.20;;
72493;SDS011;60520;49.182;-0.348;2023-02-15T02:01:12;6.82;;;5.38;;
72493;SDS011;60520;49.182;-0.348;2023-02-15T02:03:42;7.20;;;5.30;;
72493;SDS011;60520;49.182;-0.348;2023-02-15T02:06:10;6.65;;;5.00;;
72493;SDS011;60520;49.182;-0.348;2023-02-15T02:08:38;6.53;;;5.20;;
72493;SDS011;60520;49.182;-0.348;2023-02-15T02:11:09;6.55;;;4.72;;
72493;SDS011;60520;49.182;-0.348;2023-02-15T02:13:36;6.78;;;5.18;;
72493;SDS011;60520;49.182;-0.348;2023-02-15T02:16:04;7.78;;;5.38;;
72493;SDS011;60520;49.182;-0.348;2023-02-15T02:18:35;6.53;;;5.53;;
72493;SDS011;60520;49.182;-0.348;2023-02-15T02:21:13;6.57;;;5.18;;
72493;SDS011;60520;49.182;-0.348;2023-02-15T02:23:50;7.18;;;5.50;;
72493;SDS011;60520;49.182;-0.348;2023-02-15T02:29:22;6.20;;;4.95;;
72493;SDS011;60520;49.182;-0.348;2023-02-15T02:32:13;6.97;;;5.47;;
72493;SDS011;60520;49.182;-0.348;2023-02-15T02:34:46;6.82;;;5.00;;
72493;SDS011;60520;49.182;-0.348;2023-02-15T02:37:19;7.38;;;5.10;;
72493;SDS011;60520;49.182;-0.348;2023-02-15T02:39:50;7.55;;;5.50;;
72493;SDS011;60520;49.182;-0.348;2023-02-15T02:42:21;7.25;;;5.28;;
72493;SDS011;60520;49.182;-0.348;2023-02-15T02:44:53;7.18;;;5.10;;
72493;SDS011;60520;49.182;-0.348;2023-02-15T02:47:22;7.05;;;5.15;;
72493;SDS011;60520;49.182;-0.348;2023-02-15T02:49:57;8.02;;;5.35;;
72493;SDS011;60520;49.182;-0.348;2023-02-15T02:52:34;7.05;;;5.30;;
72493;SDS011;60520;49.182;-0.348;2023-02-15T02:55:01;7.05;;;5.40;;
72493;SDS011;60520;49.182;-0.348;2023-02-15T02:57:30;6.85;;;5.03;;
72493;SDS011;60520;49.182;-0.348;2023-02-15T02:59:59;6.68;;;5.28;;
72493;SDS011;60520;49.182;-0.348;2023-02-15T03:02:28;6.03;;;5.32;;
72493;SDS011;60520;49.182;-0.348;2023-02-15T03:04:58;8.27;;;5.82;;
72493;SDS011;60520;49.182;-0.348;2023-02-15T03:07:29;6.93;;;5.30;;
72493;SDS011;60520;49.182;-0.348;2023-02-15T03:09:57;7.22;;;5.28;;
72493;SDS011;60520;49.182;-0.348;2023-02-15T03:12:26;7.10;;;5.25;;
72493;SDS011;60520;49.182;-0.348;2023-02-15T03:14:56;7.80;;;5.55;;
72493;SDS011;60520;49.182;-0.348;2023-02-15T03:17:24;7.47;;;5.28;;
72493;SDS011;60520;49.182;-0.348;2023-02-15T03:19:53;6.75;;;5.00;;
72493;SDS011;60520;49.182;-0.348;2023-02-15T03:22:25;9.75;;;5.55;;
72493;SDS011;60520;49.182;-0.348;2023-02-15T03:24:53;6.50;;;5.00;;
72493;SDS011;60520;49.182;-0.348;2023-02-15T03:27:23;7.82;;;5.75;;
72493;SDS011;60520;49.182;-0.348;2023-02-15T03:29:52;7.32;;;4.93;;
72493;SDS011;60520;49.182;-0.348;2023-02-15T03:32:20;7.43;;;5.65;;
72493;SDS011;60520;49.182;-0.348;2023-02-15T03:34:47;6.72;;;5.10;;
72493;SDS011;60520;49.182;-0.348;2023-02-15T03:37:15;7.47;;;5.75;;
72493;SDS011;60520;49.182;-0.348;2023-02-15T03:39:47;6.72;;;4.72;;
72493;SDS011;60520;49.182;-0.348;2023-02-15T03:42:16;5.63;;;4.70;;
72493;SDS011;60520;49.182;-0.348;2023-02-15T03:44:46;6.38;;;5.25;;
72493;SDS011;60520;49.182;-0.348;2023-02-15T03:47:16;6.65;;;5.10;;
72493;SDS011;60520;49.182;-0.348;2023-02-15T03:49:45;6.00;;;4.93;;
72493;SDS011;60520;49.182;-0.348;2023-02-15T03:52:14;7.15;;;5.60;;
72493;SDS011;60520;49.182;-0.348;2023-02-15T03:54:42;7.70;;;5.00;;
72493;SDS011;60520;49.182;-0.348;2023-02-15T03:57:14;6.43;;;5.30;;
72493;SDS011;60520;49.182;-0.348;2023-02-15T03:59:59;9.23;;;5.75;;
72493;SDS011;60520;49.182;-0.348;2023-02-15T04:02:46;6.80;;;5.25;;
72493;SDS011;60520;49.182;-0.348;2023-02-15T04:05:14;6.50;;;5.22;;
72493;SDS011;60520;49.182;-0.348;2023-02-15T04:07:41;6.10;;;4.88;;
72493;SDS011;60520;49.182;-0.348;2023-02-15T04:10:09;7.57;;;5.15;;
72493;SDS011;60520;49.182;-0.348;2023-02-15T04:12:55;7.65;;;5.47;;
72493;SDS011;60520;49.182;-0.348;2023-02-15T04:15:22;6.80;;;5.35;;
72493;SDS011;60520;49.182;-0.348;2023-02-15T04:18:07;6.70;;;5.20;;
72493;SDS011;60520;49.182;-0.348;2023-02-15T04:20:34;7.63;;;5.45;;
72493;SDS011;60520;49.182;-0.348;2023-02-15T04:23:19;7.63;;;5.57;;
72493;SDS011;60520;49.182;-0.348;2023-02-15T04:26:03;7.88;;;5.68;;
72493;SDS011;60520;49.182;-0.348;2023-02-15T04:28:32;6.20;;;5.00;;
72493;SDS011;60520;49.182;-0.348;2023-02-15T04:30:59;5.68;;;4.97;;
72493;SDS011;60520;49.182;-0.348;2023-02-15T04:33:26;7.07;;;5.00;;
72493;SDS011;60520;49.182;-0.348;2023-02-15T04:35:53;6.82;;;5.20;;
72493;SDS011;60520;49.182;-0.348;2023-02-15T04:38:21;5.65;;;4.75;;
72493;SDS011;60520;49.182;-0.348;2023-02-15T04:40:49;6.10;;;5.30;;
72493;SDS011;60520;49.182;-0.348;2023-02-15T04:43:16;7.43;;;5.53;;
72493;SDS011;60520;49.182;-0.348;2023-02-15T04:45:48;6.40;;;5.00;;
72493;SDS011;60520;49.182;-0.348;2023-02-15T04:48:16;7.28;;;5.47;;
72493;SDS011;60520;49.182;-0.348;2023-02-15T04:50:43;7.38;;;5.20;;
72493;SDS011;60520;49.182;-0.348;2023-02-15T04:53:11;6.75;;;5.07;;
72493;SDS011;60520;49.182;-0.348;2023-02-15T04:55:38;7.05;;;5.35;;
72493;SDS011;60520;49.182;-0.348;2023-02-15T04:58:05;6.70;;;4.97;;
72493;SDS011;60520;49.182;-0.348;2023-02-15T05:00:32;6.32;;;5.05;;
72493;SDS011;60520;49.182;-0.348;2023-02-15T05:03:00;7.07;;;5.38;;
72493;SDS011;60520;49.182;-0.348;2023-02-15T05:05:27;6.60;;;5.05;;
72493;SDS011;60520;49.182;-0.348;2023-02-15T05:07:54;6.85;;;5.10;;
72493;SDS011;60520;49.182;-0.348;2023-02-15T05:10:22;7.78;;;5.50;;
72493;SDS011;60520;49.182;-0.348;2023-02-15T05:12:49;7.28;;;5.10;;
72493;SDS011;60520;49.182;-0.348;2023-02-15T05:15:16;6.78;;;5.30;;
72493;SDS011;60520;49.182;-0.348;2023-02-15T05:17:43;5.72;;;5.00;;
72493;SDS011;60520;49.182;-0.348;2023-02-15T05:20:11;6.55;;;5.47;;
72493;SDS011;60520;49.182;-0.348;2023-02-15T05:22:38;5.50;;;4.85;;
72493;SDS011;60520;49.182;-0.348;2023-02-15T05:25:07;6.72;;;5.30;;
72493;SDS011;60520;49.182;-0.348;2023-02-15T05:27:52;7.38;;;5.53;;
72493;SDS011;60520;49.182;-0.348;2023-02-15T05:30:37;6.75;;;5.22;;
72493;SDS011;60520;49.182;-0.348;2023-02-15T05:33:04;5.90;;;4.90;;
72493;SDS011;60520;49.182;-0.348;2023-02-15T05:35:33;6.90;;;5.47;;
72493;SDS011;60520;49.182;-0.348;2023-02-15T05:38:01;5.88;;;5.00;;
72493;SDS011;60520;49.182;-0.348;2023-02-15T05:40:28;6.88;;;5.20;;
72493;SDS011;60520;49.182;-0.348;2023-02-15T05:42:55;6.07;;;5.22;;
72493;SDS011;60520;49.182;-0.348;2023-02-15T05:45:22;6.65;;;5.30;;
72493;SDS011;60520;49.182;-0.348;2023-02-15T05:47:50;7.65;;;5.38;;
72493;SDS011;60520;49.182;-0.348;2023-02-15T05:50:17;6.20;;;5.13;;
72493;SDS011;60520;49.182;-0.348;2023-02-15T05:52:45;7.05;;;5.35;;
72493;SDS011;60520;49.182;-0.348;2023-02-15T05:55:12;7.15;;;5.80;;
72493;SDS011;60520;49.182;-0.348;2023-02-15T05:57:39;5.88;;;4.95;;
72493;SDS011;60520;49.182;-0.348;2023-02-15T06:00:07;6.30;;;4.97;;
72493;SDS011;60520;49.182;-0.348;2023-02-15T06:02:35;7.30;;;5.43;;
72493;SDS011;60520;49.182;-0.348;2023-02-15T06:05:02;5.97;;;5.28;;
72493;SDS011;60520;49.182;-0.348;2023-02-15T06:07:29;6.43;;;5.10;;
72493;SDS011;60520;49.182;-0.348;2023-02-15T06:09:57;6.95;;;5.22;;
72493;SDS011;60520;49.182;-0.348;2023-02-15T06:12:24;6.70;;;4.85;;
72493;SDS011;60520;49.182;-0.348;2023-02-15T06:14:52;5.82;;;4.80;;
72493;SDS011;60520;49.182;-0.348;2023-02-15T06:17:19;6.25;;;4.93;;
72493;SDS011;60520;49.182;-0.348;2023-02-15T06:19:46;6.03;;;4.82;;
72493;SDS011;60520;49.182;-0.348;2023-02-15T06:22:13;6.95;;;5.22;;
72493;SDS011;60520;49.182;-0.348;2023-02-15T06:24:41;6.22;;;4.88;;
72493;SDS011;60520;49.182;-0.348;2023-02-15T06:27:09;6.88;;;5.30;;
72493;SDS011;60520;49.182;-0.348;2023-02-15T06:29:37;6.10;;;4.63;;
72493;SDS011;60520;49.182;-0.348;2023-02-15T06:32:04;5.40;;;4.80;;
72493;SDS011;60520;49.182;-0.348;2023-02-15T06:34:31;6.68;;;4.97;;
72493;SDS011;60520;49.182;-0.348;2023-02-15T06:36:59;5.80;;;4.88;;
72493;SDS011;60520;49.182;-0.348;2023-02-15T06:39:26;5.60;;;4.55;;
72493;SDS011;60520;49.182;-0.348;2023-02-15T06:41:53;5.80;;;4.78;;
72493;SDS011;60520;49.182;-0.348;2023-02-15T06:44:21;6.43;;;5.25;;
72493;SDS011;60520;49.182;-0.348;2023-02-15T06:46:48;7.50;;;4.95;;
72493;SDS011;60520;49.182;-0.348;2023-02-15T06:49:15;6.13;;;4.93;;
72493;SDS011;60520;49.182;-0.348;2023-02-15T06:51:42;6.68;;;4.75;;
72493;SDS011;60520;49.182;-0.348;2023-02-15T06:54:10;5.30;;;4.57;;
72493;SDS011;60520;49.182;-0.348;2023-02-15T06:56:37;5.55;;;4.60;;
72493;SDS011;60520;49.182;-0.348;2023-02-15T06:59:04;5.88;;;4.95;;
72493;SDS011;60520;49.182;-0.348;2023-02-15T07:01:32;5.90;;;4.53;;
72493;SDS011;60520;49.182;-0.348;2023-02-15T07:04:01;5.45;;;4.50;;
72493;SDS011;60520;49.182;-0.348;2023-02-15T07:06:30;5.57;;;4.47;;
72493;SDS011;60520;49.182;-0.348;2023-02-15T07:08:57;5.43;;;4.40;;
72493;SDS011;60520;49.182;-0.348;2023-02-15T07:11:25;5.63;;;4.47;;
72493;SDS011;60520;49.182;-0.348;2023-02-15T07:14:10;5.95;;;4.78;;
72493;SDS011;60520;49.182;-0.348;2023-02-15T07:16:39;5.93;;;4.50;;
72493;SDS011;60520;49.182;-0.348;2023-02-15T07:19:06;4.90;;;4.20;;
72493;SDS011;60520;49.182;-0.348;2023-02-15T07:21:33;4.93;;;4.43;;
72493;SDS011;60520;49.182;-0.348;2023-02-15T07:24:00;5.20;;;4.45;;
72493;SDS011;60520;49.182;-0.348;2023-02-15T07:26:28;5.45;;;4.45;;
72493;SDS011;60520;49.182;-0.348;2023-02-15T07:28:55;5.90;;;4.20;;
72493;SDS011;60520;49.182;-0.348;2023-02-15T07:31:22;5.75;;;4.50;;
72493;SDS011;60520;49.182;-0.348;2023-02-15T07:33:50;5.55;;;4.50;;
72493;SDS011;60520;49.182;-0.348;2023-02-15T07:36:17;6.43;;;4.97;;
72493;SDS011;60520;49.182;-0.348;2023-02-15T07:38:45;6.15;;;4.50;;
72493;SDS011;60520;49.182;-0.348;2023-02-15T07:41:12;5.03;;;4.28;;
72493;SDS011;60520;49.182;-0.348;2023-02-15T07:43:40;6.97;;;4.50;;
72493;SDS011;60520;49.182;-0.348;2023-02-15T07:46:08;5.82;;;4.30;;
72493;SDS011;60520;49.182;-0.348;2023-02-15T07:48:36;5.57;;;4.55;;
72493;SDS011;60520;49.182;-0.348;2023-02-15T07:51:06;5.05;;;4.07;;
72493;SDS011;60520;49.182;-0.348;2023-02-15T07:53:33;6.60;;;4.43;;
72493;SDS011;60520;49.182;-0.348;2023-02-15T07:56:01;5.57;;;4.30;;
72493;SDS011;60520;49.182;-0.348;2023-02-15T07:58:28;4.70;;;4.00;;
72493;SDS011;60520;49.182;-0.348;2023-02-15T08:01:09;4.55;;;3.97;;
72493;SDS011;60520;49.182;-0.348;2023-02-15T08:03:36;4.55;;;4.03;;
72493;SDS011;60520;49.182;-0.348;2023-02-15T08:06:05;6.68;;;4.43;;
72493;SDS011;60520;49.182;-0.348;2023-02-15T08:08:33;5.05;;;4.10;;
72493;SDS011;60520;49.182;-0.348;2023-02-15T08:11:01;5.10;;;4.03;;
72493;SDS011;60520;49.182;-0.348;2023-02-15T08:13:46;5.47;;;3.92;;
72493;SDS011;60520;49.182;-0.348;2023-02-15T08:16:21;4.82;;;4.25;;
72493;SDS011;60520;49.182;-0.348;2023-02-15T08:18:48;5.38;;;4.28;;
72493;SDS011;60520;49.182;-0.348;2023-02-15T08:21:16;5.60;;;4.07;;
72493;SDS011;60520;49.182;-0.348;2023-02-15T08:23:43;6.93;;;4.45;;
72493;SDS011;60520;49.182;-0.348;2023-02-15T08:26:11;5.40;;;4.28;;
72493;SDS011;60520;49.182;-0.348;2023-02-15T08:28:38;6.22;;;4.35;;
72493;SDS011;60520;49.182;-0.348;2023-02-15T08:31:05;5.00;;;4.38;;
72493;SDS011;60520;49.182;-0.348;2023-02-15T08:33:33;5.35;;;4.30;;
72493;SDS011;60520;49.182;-0.348;2023-02-15T08:36:04;4.53;;;3.85;;
72493;SDS011;60520;49.182;-0.348;2023-02-15T08:38:33;5.57;;;3.92;;
72493;SDS011;60520;49.182;-0.348;2023-02-15T08:41:08;5.65;;;4.50;;
72493;SDS011;60520;49.182;-0.348;2023-02-15T08:43:35;6.07;;;4.25;;
72493;SDS011;60520;49.182;-0.348;2023-02-15T08:46:02;5.18;;;4.03;;
72493;SDS011;60520;49.182;-0.348;2023-02-15T08:48:29;5.15;;;4.07;;
72493;SDS011;60520;49.182;-0.348;2023-02-15T08:50:57;5.20;;;4.15;;
72493;SDS011;60520;49.182;-0.348;2023-02-15T08:53:24;7.85;;;4.90;;
72493;SDS011;60520;49.182;-0.348;2023-02-15T08:55:56;7.35;;;4.88;;
72493;SDS011;60520;49.182;-0.348;2023-02-15T08:58:23;9.98;;;4.63;;
72493;SDS011;60520;49.182;-0.348;2023-02-15T09:00:50;6.05;;;4.72;;
72493;SDS011;60520;49.182;-0.348;2023-02-15T09:03:18;8.80;;;4.60;;
72493;SDS011;60520;49.182;-0.348;2023-02-15T09:05:46;7.97;;;4.47;;
72493;SDS011;60520;49.182;-0.348;2023-02-15T09:08:13;6.20;;;4.75;;
72493;SDS011;60520;49.182;-0.348;2023-02-15T09:10:40;6.45;;;4.75;;
72493;SDS011;60520;49.182;-0.348;2023-02-15T09:13:09;6.07;;;4.15;;
72493;SDS011;60520;49.182;-0.348;2023-02-15T09:15:36;11.35;;;4.75;;
72493;SDS011;60520;49.182;-0.348;2023-02-15T09:18:03;6.43;;;4.45;;
72493;SDS011;60520;49.182;-0.348;2023-02-15T09:20:31;5.55;;;4.25;;
72493;SDS011;60520;49.182;-0.348;2023-02-15T09:22:58;6.28;;;4.50;;
72493;SDS011;60520;49.182;-0.348;2023-02-15T09:25:26;5.47;;;4.28;;
72493;SDS011;60520;49.182;-0.348;2023-02-15T09:27:53;6.80;;;4.55;;
72493;SDS011;60520;49.182;-0.348;2023-02-15T09:30:21;5.85;;;4.30;;
72493;SDS011;60520;49.182;-0.348;2023-02-15T09:32:48;7.03;;;4.65;;
72493;SDS011;60520;49.182;-0.348;2023-02-15T09:35:15;7.53;;;4.70;;
72493;SDS011;60520;49.182;-0.348;2023-02-15T09:37:42;5.00;;;4.38;;
72493;SDS011;60520;49.182;-0.348;2023-02-15T09:40:11;6.75;;;4.28;;
72493;SDS011;60520;49.182;-0.348;2023-02-15T09:45:32;5.78;;;4.47;;
72493;SDS011;60520;49.182;-0.348;2023-02-15T09:48:11;6.15;;;4.45;;
72493;SDS011;60520;49.182;-0.348;2023-02-15T09:50:45;6.95;;;4.72;;
72493;SDS011;60520;49.182;-0.348;2023-02-15T09:53:21;7.20;;;4.22;;
72493;SDS011;60520;49.182;-0.348;2023-02-15T09:55:51;5.97;;;4.22;;
72493;SDS011;60520;49.182;-0.348;2023-02-15T09:58:23;9.38;;;5.03;;
72493;SDS011;60520;49.182;-0.348;2023-02-15T10:00:54;6.70;;;4.70;;
72493;SDS011;60520;49.182;-0.348;2023-02-15T10:03:37;6.30;;;4.50;;
72493;SDS011;60520;49.182;-0.348;2023-02-15T10:06:11;7.85;;;4.65;;
72493;SDS011;60520;49.182;-0.348;2023-02-15T10:11:30;8.57;;;4.07;;
72493;SDS011;60520;49.182;-0.348;2023-02-15T10:16:56;6.03;;;3.95;;
72493;SDS011;60520;49.182;-0.348;2023-02-15T10:19:30;6.65;;;4.10;;
72493;SDS011;60520;49.182;-0.348;2023-02-15T10:22:03;6.95;;;4.93;;
72493;SDS011;60520;49.182;-0.348;2023-02-15T10:24:39;6.97;;;4.63;;
72493;SDS011;60520;49.182;-0.348;2023-02-15T10:27:11;6.63;;;4.57;;
72493;SDS011;60520;49.182;-0.348;2023-02-15T10:29:39;6.03;;;4.13;;
72493;SDS011;60520;49.182;-0.348;2023-02-15T10:32:16;6.47;;;4.43;;
72493;SDS011;60520;49.182;-0.348;2023-02-15T10:34:50;8.40;;;4.60;;
72493;SDS011;60520;49.182;-0.348;2023-02-15T10:40:17;5.70;;;4.07;;
72493;SDS011;60520;49.182;-0.348;2023-02-15T10:42:52;9.23;;;4.68;;
72493;SDS011;60520;49.182;-0.348;2023-02-15T10:45:23;7.43;;;4.50;;
72493;SDS011;60520;49.182;-0.348;2023-02-15T10:50:48;5.72;;;4.07;;
72493;SDS011;60520;49.182;-0.348;2023-02-15T10:53:28;5.30;;;3.90;;
72493;SDS011;60520;49.182;-0.348;2023-02-15T10:56:02;7.05;;;4.20;;
72493;SDS011;60520;49.182;-0.348;2023-02-15T10:58:37;5.93;;;4.13;;
72493;SDS011;60520;49.182;-0.348;2023-02-15T11:01:10;7.45;;;4.00;;
72493;SDS011;60520;49.182;-0.348;2023-02-15T11:03:43;6.00;;;4.38;;
72493;SDS011;60520;49.182;-0.348;2023-02-15T11:06:14;5.95;;;4.30;;
72493;SDS011;60520;49.182;-0.348;2023-02-15T11:08:43;5.72;;;4.07;;
72493;SDS011;60520;49.182;-0.348;2023-02-15T11:11:11;6.13;;;4.20;;
72493;SDS011;60520;49.182;-0.348;2023-02-15T11:13:39;6.85;;;3.47;;
72493;SDS011;60520;49.182;-0.348;2023-02-15T11:16:10;6.15;;;4.03;;
72493;SDS011;60520;49.182;-0.348;2023-02-15T11:18:40;7.18;;;3.78;;
72493;SDS011;60520;49.182;-0.348;2023-02-15T11:21:09;6.22;;;3.42;;
72493;SDS011;60520;49.182;-0.348;2023-02-15T11:23:41;6.90;;;3.92;;
72493;SDS011;60520;49.182;-0.348;2023-02-15T11:26:12;4.75;;;3.70;;
72493;SDS011;60520;49.182;-0.348;2023-02-15T11:28:41;5.88;;;3.63;;
72493;SDS011;60520;49.182;-0.348;2023-02-15T11:31:11;5.40;;;3.60;;
72493;SDS011;60520;49.182;-0.348;2023-02-15T11:33:40;4.78;;;3.78;;
72493;SDS011;60520;49.182;-0.348;2023-02-15T11:36:11;4.57;;;3.83;;
72493;SDS011;60520;49.182;-0.348;2023-02-15T11:38:43;5.40;;;3.55;;
72493;SDS011;60520;49.182;-0.348;2023-02-15T11:41:13;6.80;;;3.90;;
72493;SDS011;60520;49.182;-0.348;2023-02-15T11:43:43;3.70;;;3.30;;
72493;SDS011;60520;49.182;-0.348;2023-02-15T11:46:10;4.75;;;3.63;;
72493;SDS011;60520;49.182;-0.348;2023-02-15T11:48:38;5.05;;;3.30;;
72493;SDS011;60520;49.182;-0.348;2023-02-15T11:51:08;7.25;;;4.07;;
72493;SDS011;60520;49.182;-0.348;2023-02-15T11:53:36;5.63;;;3.17;;
72493;SDS011;60520;49.182;-0.348;2023-02-15T11:56:10;5.28;;;3.30;;
72493;SDS011;60520;49.182;-0.348;2023-02-15T11:58:40;5.03;;;3.53;;
72493;SDS011;60520;49.182;-0.348;2023-02-15T12:01:09;3.92;;;3.17;;
72493;SDS011;60520;49.182;-0.348;2023-02-15T12:03:41;6.70;;;3.72;;
72493;SDS011;60520;49.182;-0.348;2023-02-15T12:06:12;5.05;;;3.28;;
72493;SDS011;60520;49.182;-0.348;2023-02-15T12:08:40;4.43;;;3.35;;
72493;SDS011;60520;49.182;-0.348;2023-02-15T12:11:11;5.07;;;3.15;;
72493;SDS011;60520;49.182;-0.348;2023-02-15T12:13:55;4.93;;;3.47;;
72493;SDS011;60520;49.182;-0.348;2023-02-15T12:16:22;3.88;;;3.25;;
72493;SDS011;60520;49.182;-0.348;2023-02-15T12:18:49;4.82;;;3.28;;
72493;SDS011;60520;49.182;-0.348;2023-02-15T12:21:23;5.75;;;3.22;;
72493;SDS011;60520;49.182;-0.348;2023-02-15T12:23:51;5.57;;;3.45;;
72493;SDS011;60520;49.182;-0.348;2023-02-15T12:26:24;4.95;;;3.47;;
72493;SDS011;60520;49.182;-0.348;2023-02-15T12:28:52;5.13;;;3.65;;
72493;SDS011;60520;49.182;-0.348;2023-02-15T12:31:20;4.25;;;3.00;;
72493;SDS011;60520;49.182;-0.348;2023-02-15T12:33:48;5.10;;;3.25;;
72493;SDS011;60520;49.182;-0.348;2023-02-15T12:36:18;4.35;;;3.13;;
72493;SDS011;60520;49.182;-0.348;2023-02-15T12:41:29;6.38;;;3.60;;
72493;SDS011;60520;49.182;-0.348;2023-02-15T12:44:03;4.30;;;3.40;;
72493;SDS011;60520;49.182;-0.348;2023-02-15T12:46:31;3.83;;;3.00;;
72493;SDS011;60520;49.182;-0.348;2023-02-15T12:49:05;4.72;;;3.20;;
72493;SDS011;60520;49.182;-0.348;2023-02-15T12:51:41;3.90;;;2.72;;
72493;SDS011;60520;49.182;-0.348;2023-02-15T12:54:15;5.97;;;3.08;;
72493;SDS011;60520;49.182;-0.348;2023-02-15T12:56:45;5.00;;;3.17;;
72493;SDS011;60520;49.182;-0.348;2023-02-15T12:59:13;6.20;;;2.85;;
72493;SDS011;60520;49.182;-0.348;2023-02-15T13:01:41;4.78;;;3.20;;
72493;SDS011;60520;49.182;-0.348;2023-02-15T13:04:14;4.65;;;3.05;;
72493;SDS011;60520;49.182;-0.348;2023-02-15T13:06:46;7.63;;;3.28;;
72493;SDS011;60520;49.182;-0.348;2023-02-15T13:09:14;6.10;;;3.22;;
72493;SDS011;60520;49.182;-0.348;2023-02-15T13:11:43;5.10;;;2.97;;
72493;SDS011;60520;49.182;-0.348;2023-02-15T13:14:16;4.47;;;2.80;;
72493;SDS011;60520;49.182;-0.348;2023-02-15T13:16:44;5.18;;;2.65;;
72493;SDS011;60520;49.182;-0.348;2023-02-15T13:19:16;5.15;;;2.72;;
72493;SDS011;60520;49.182;-0.348;2023-02-15T13:21:45;4.95;;;2.70;;
72493;SDS011;60520;49.182;-0.348;2023-02-15T13:24:15;6.68;;;2.95;;
72493;SDS011;60520;49.182;-0.348;2023-02-15T13:26:45;4.50;;;3.05;;
72493;SDS011;60520;49.182;-0.348;2023-02-15T13:29:23;5.18;;;2.92;;
72493;SDS011;60520;49.182;-0.348;2023-02-15T13:31:51;6.38;;;3.17;;
72493;SDS011;60520;49.182;-0.348;2023-02-15T13:34:20;6.07;;;2.95;;
72493;SDS011;60520;49.182;-0.348;2023-02-15T13:36:49;5.55;;;2.92;;
72493;SDS011;60520;49.182;-0.348;2023-02-15T13:39:20;4.57;;;2.88;;
72493;SDS011;60520;49.182;-0.348;2023-02-15T13:41:56;5.53;;;3.10;;
72493;SDS011;60520;49.182;-0.348;2023-02-15T13:44:30;7.53;;;2.90;;
72493;SDS011;60520;49.182;-0.348;2023-02-15T13:47:03;6.50;;;3.08;;
72493;SDS011;60520;49.182;-0.348;2023-02-15T13:49:37;5.45;;;3.20;;
72493;SDS011;60520;49.182;-0.348;2023-02-15T13:52:08;7.13;;;3.25;;
72493;SDS011;60520;49.182;-0.348;2023-02-15T13:54:46;7.18;;;3.35;;
72493;SDS011;60520;49.182;-0.348;2023-02-15T13:57:24;6.57;;;3.00;;
72493;SDS011;60520;49.182;-0.348;2023-02-15T13:59:58;6.57;;;3.03;;
72493;SDS011;60520;49.182;-0.348;2023-02-15T14:02:42;8.13;;;3.60;;
72493;SDS011;60520;49.182;-0.348;2023-02-15T14:07:57;88.95;;;6.53;;
72493;SDS011;60520;49.182;-0.348;2023-02-15T14:10:29;52.03;;;5.85;;
72493;SDS011;60520;49.182;-0.348;2023-02-15T14:13:09;79.35;;;6.65;;
72493;SDS011;60520;49.182;-0.348;2023-02-15T14:15:38;50.80;;;5.03;;
72493;SDS011;60520;49.182;-0.348;2023-02-15T14:18:12;20.45;;;5.20;;
72493;SDS011;60520;49.182;-0.348;2023-02-15T14:20:43;18.30;;;4.53;;
72493;SDS011;60520;49.182;-0.348;2023-02-15T14:23:17;14.30;;;4.28;;
72493;SDS011;60520;49.182;-0.348;2023-02-15T14:25:53;12.45;;;4.75;;
72493;SDS011;60520;49.182;-0.348;2023-02-15T14:28:25;14.25;;;4.45;;
72493;SDS011;60520;49.182;-0.348;2023-02-15T14:30:55;13.15;;;4.35;;
72493;SDS011;60520;49.182;-0.348;2023-02-15T14:33:29;16.60;;;4.05;;
72493;SDS011;60520;49.182;-0.348;2023-02-15T14:35:58;10.60;;;3.83;;
72493;SDS011;60520;49.182;-0.348;2023-02-15T14:38:33;11.52;;;4.00;;
72493;SDS011;60520;49.182;-0.348;2023-02-15T14:41:04;23.67;;;4.85;;
72493;SDS011;60520;49.182;-0.348;2023-02-15T14:43:41;22.27;;;4.82;;
72493;SDS011;60520;49.182;-0.348;2023-02-15T14:46:15;20.60;;;4.55;;
72493;SDS011;60520;49.182;-0.348;2023-02-15T14:48:44;20.60;;;4.50;;
72493;SDS011;60520;49.182;-0.348;2023-02-15T14:53:54;20.38;;;4.78;;
72493;SDS011;60520;49.182;-0.348;2023-02-15T14:56:27;23.48;;;4.40;;
72493;SDS011;60520;49.182;-0.348;2023-02-15T14:59:00;15.30;;;4.53;;
72493;SDS011;60520;49.182;-0.348;2023-02-15T15:01:28;11.77;;;4.05;;
72493;SDS011;60520;49.182;-0.348;2023-02-15T15:03:57;11.37;;;4.33;;
72493;SDS011;60520;49.182;-0.348;2023-02-15T15:06:26;8.50;;;4.10;;
72493;SDS011;60520;49.182;-0.348;2023-02-15T15:08:54;16.85;;;4.63;;
72493;SDS011;60520;49.182;-0.348;2023-02-15T15:11:38;12.45;;;4.32;;
72493;SDS011;60520;49.182;-0.348;2023-02-15T15:14:07;11.88;;;4.30;;